Time;durP1;ratioP1;P1;durP2;ratioP2;P2;SDS_P1;SDS_P2;PMS_P1;PMS_P2;Temp;Humidity;BMP_temperature;BMP_pressure;BME280_temperature;BME280_humidity;BME280_pressure;Samples;Min_cycle;Max_cycle;Signal;HPM_P1;HPM_P2
2023/03/01 00:01:24;;;;;;;22.35;13.88;;;-1.80;99.90;;;;;;5048995;28;20179;-71
2023/03/01 00:03:51;;;;;;;23.02;12.85;;;-1.90;99.90;;;;;;5049103;28;20187;-71
2023/03/01 00:06:17;;;;;;;22.23;13.63;;;-1.90;99.90;;;;;;5048965;28;20198;-71
2023/03/01 00:08:43;;;;;;;23.80;14.23;;;-1.90;99.90;;;;;;5048851;28;20211;-72
2023/03/01 00:11:14;;;;;;;34.17;14.50;;;-1.80;99.90;;;;;;5047531;28;20191;-72
2023/03/01 00:13:41;;;;;;;22.25;14.00;;;-1.90;99.90;;;;;;5048862;28;20211;-71
2023/03/01 00:16:09;;;;;;;20.42;12.80;;;-1.90;99.90;;;;;;5048866;28;20180;-72
2023/03/01 00:18:35;;;;;;;20.48;13.02;;;-1.90;99.90;;;;;;5048849;28;20210;-72
2023/03/01 00:21:01;;;;;;;24.03;13.37;;;-1.90;99.90;;;;;;5049114;28;20263;-72
2023/03/01 00:23:28;;;;;;;23.20;12.75;;;-1.90;99.90;;;;;;5048959;28;20245;-72
2023/03/01 00:25:54;;;;;;;21.45;13.13;;;-1.90;99.90;;;;;;5048763;28;20630;-72
2023/03/01 00:28:20;;;;;;;26.05;15.10;;;-1.90;99.90;;;;;;5048961;28;20671;-72
2023/03/01 00:30:46;;;;;;;32.90;18.83;;;-1.90;99.90;;;;;;5049124;28;20179;-72
2023/03/01 00:33:11;;;;;;;36.37;20.40;;;-2.00;99.90;;;;;;5048732;28;20238;-72
2023/03/01 00:35:37;;;;;;;23.73;14.77;;;-2.10;99.90;;;;;;5048669;28;20441;-72
2023/03/01 00:38:03;;;;;;;23.60;13.50;;;-2.10;99.90;;;;;;5048718;28;20691;-72
2023/03/01 00:40:31;;;;;;;21.55;13.23;;;-2.20;99.90;;;;;;5048910;28;20480;-72
2023/03/01 00:42:57;;;;;;;24.05;14.35;;;-2.20;99.90;;;;;;5048877;28;20717;-72
2023/03/01 00:45:23;;;;;;;22.00;13.17;;;-2.10;99.90;;;;;;5048902;28;20195;-72
2023/03/01 00:47:50;;;;;;;22.50;14.40;;;-2.10;99.90;;;;;;5049096;28;20442;-72
2023/03/01 00:50:16;;;;;;;23.77;13.50;;;-2.20;99.90;;;;;;5048917;28;20444;-72
2023/03/01 00:52:42;;;;;;;25.13;14.20;;;-2.20;99.90;;;;;;5048570;28;20324;-72
2023/03/01 00:55:08;;;;;;;18.20;12.50;;;-2.20;99.90;;;;;;5047180;28;20207;-72
2023/03/01 00:57:34;;;;;;;18.83;12.35;;;-2.30;99.90;;;;;;5048505;28;20238;-72
2023/03/01 00:59:59;;;;;;;20.80;12.93;;;-2.20;99.90;;;;;;5048689;28;20175;-72
2023/03/01 01:02:25;;;;;;;26.00;12.87;;;-2.20;99.90;;;;;;5048736;28;20180;-72
2023/03/01 01:04:51;;;;;;;18.80;12.00;;;-2.20;99.90;;;;;;5048824;28;20532;-72
2023/03/01 01:07:17;;;;;;;23.23;13.70;;;-2.20;99.90;;;;;;5048510;28;20203;-72
2023/03/01 01:09:43;;;;;;;22.85;12.13;;;-2.20;99.90;;;;;;5048619;28;20567;-72
2023/03/01 01:12:09;;;;;;;19.03;12.00;;;-2.30;99.90;;;;;;5048785;28;20200;-72
2023/03/01 01:14:35;;;;;;;20.57;13.10;;;-2.30;99.90;;;;;;5049052;28;20422;-72
2023/03/01 01:17:01;;;;;;;21.70;12.60;;;-2.30;99.90;;;;;;5048740;28;20577;-72
2023/03/01 01:19:27;;;;;;;22.30;13.63;;;-2.30;99.90;;;;;;5048624;28;20176;-72
2023/03/01 01:21:53;;;;;;;23.63;14.50;;;-2.30;99.90;;;;;;5048322;28;20259;-72
2023/03/01 01:24:19;;;;;;;20.17;12.37;;;-2.30;99.90;;;;;;5048276;28;20421;-72
2023/03/01 01:26:45;;;;;;;20.48;12.23;;;-2.30;99.90;;;;;;5048138;28;20207;-72
2023/03/01 01:29:11;;;;;;;20.35;12.95;;;-2.20;99.90;;;;;;5048389;28;20237;-72
2023/03/01 01:31:39;;;;;;;19.75;12.13;;;-2.20;99.90;;;;;;5047156;28;20555;-71
2023/03/01 01:34:06;;;;;;;33.05;12.93;;;-2.10;99.90;;;;;;5048115;28;20233;-71
2023/03/01 01:36:32;;;;;;;21.25;12.40;;;-2.10;99.90;;;;;;5047951;28;20203;-72
2023/03/01 01:38:58;;;;;;;23.60;15.17;;;-2.00;99.90;;;;;;5050288;28;20180;-72
2023/03/01 01:41:25;;;;;;;27.25;16.95;;;-2.00;99.90;;;;;;5051866;28;20517;-72
2023/03/01 01:44:14;;;;;;;28.55;16.77;;;-1.90;99.90;;;;;;5052003;28;20191;-72
2023/03/01 01:47:14;;;;;;;23.13;15.30;;;-1.80;99.90;;;;;;5050426;28;20215;-72
2023/03/01 01:49:53;;;;;;;27.90;16.10;;;-1.70;99.90;;;;;;5052245;28;21053;-72
2023/03/01 01:52:27;;;;;;;28.13;15.82;;;-1.60;99.90;;;;;;5052235;28;20200;-72
2023/03/01 01:55:18;;;;;;;27.48;15.77;;;-1.50;99.90;;;;;;5051190;28;20171;-72
2023/03/01 01:57:47;;;;;;;24.38;14.75;;;-1.50;99.90;;;;;;5054085;28;20385;-71
2023/03/01 02:00:21;;;;;;;25.90;14.63;;;-1.50;99.90;;;;;;5055920;28;20202;-72
2023/03/01 02:02:51;;;;;;;22.00;14.63;;;-1.40;99.90;;;;;;5054767;28;20179;-72
2023/03/01 02:05:29;;;;;;;25.33;15.10;;;-1.40;99.90;;;;;;5054897;28;20187;-72
2023/03/01 02:07:57;;;;;;;29.67;15.02;;;-1.30;99.90;;;;;;5054598;28;20296;-72
2023/03/01 02:10:23;;;;;;;25.75;15.50;;;-1.20;99.90;;;;;;5054725;28;20176;-72
2023/03/01 02:12:50;;;;;;;23.92;14.63;;;-1.20;99.90;;;;;;5053295;28;20303;-72
2023/03/01 02:15:16;;;;;;;22.90;14.70;;;-1.20;99.90;;;;;;5050643;28;20180;-72
2023/03/01 02:17:42;;;;;;;31.57;15.33;;;-1.20;99.90;;;;;;5050164;28;20199;-72
2023/03/01 02:20:20;;;;;;;23.37;13.53;;;-1.20;99.90;;;;;;5050572;28;20180;-72
2023/03/01 02:22:46;;;;;;;26.02;15.40;;;-1.10;99.90;;;;;;5051737;28;20239;-72
2023/03/01 02:25:27;;;;;;;23.58;14.93;;;-1.10;99.90;;;;;;5050519;28;20191;-72
2023/03/01 02:28:11;;;;;;;27.83;14.23;;;-1.00;99.90;;;;;;5051397;28;20571;-71
2023/03/01 02:31:41;;;;;;;22.80;13.25;;;-1.00;99.90;;;;;;5051274;28;20727;-71
2023/03/01 02:33:22;;;;;;;27.92;13.52;;;-0.90;99.90;;;;;;5050988;28;20234;-72
2023/03/01 02:35:48;;;;;;;24.90;13.80;;;-0.90;99.90;;;;;;5016689;28;20196;-71
2023/03/01 02:38:14;;;;;;;35.37;13.20;;;-0.90;99.90;;;;;;5033019;28;20199;-71
2023/03/01 02:40:41;;;;;;;20.90;12.37;;;-0.90;99.90;;;;;;5051142;28;20248;-72
2023/03/01 02:43:10;;;;;;;24.73;14.48;;;-0.90;99.90;;;;;;5049306;28;20422;-71
2023/03/01 02:45:35;;;;;;;22.55;13.80;;;-0.90;99.90;;;;;;5049635;28;20200;-71
2023/03/01 02:48:01;;;;;;;24.27;13.60;;;-0.90;99.90;;;;;;5049433;28;20199;-72
2023/03/01 02:50:29;;;;;;;28.20;14.63;;;-0.90;99.90;;;;;;5050666;28;20192;-72
2023/03/01 02:53:11;;;;;;;24.48;14.00;;;-0.80;99.90;;;;;;5048943;28;20207;-72
2023/03/01 02:55:36;;;;;;;21.00;13.25;;;-0.80;99.90;;;;;;5050738;28;20835;-72
2023/03/01 02:58:03;;;;;;;22.07;13.20;;;-0.80;99.90;;;;;;5050401;28;20196;-72
2023/03/01 03:00:34;;;;;;;25.80;13.55;;;-0.80;99.90;;;;;;5050614;28;20333;-72
2023/03/01 03:02:59;;;;;;;24.15;14.93;;;-0.80;99.90;;;;;;5050490;28;20545;-72
2023/03/01 03:05:30;;;;;;;20.20;12.70;;;-0.80;99.90;;;;;;5050395;28;20297;-72
2023/03/01 03:07:56;;;;;;;21.52;13.32;;;-0.70;99.90;;;;;;5050287;28;20203;-72
2023/03/01 03:10:24;;;;;;;20.65;12.43;;;-0.70;99.90;;;;;;5050679;28;20183;-72
2023/03/01 03:12:55;;;;;;;24.83;14.30;;;-0.80;99.90;;;;;;5049165;28;20227;-72
2023/03/01 03:15:22;;;;;;;22.20;13.95;;;-0.70;99.90;;;;;;5050668;28;20175;-72
2023/03/01 03:17:48;;;;;;;19.90;13.45;;;-0.70;99.90;;;;;;5050077;28;20266;-72
2023/03/01 03:20:18;;;;;;;22.98;14.07;;;-0.70;99.90;;;;;;5048612;28;20194;-72
2023/03/01 03:22:46;;;;;;;22.58;14.20;;;-0.70;99.90;;;;;;5049812;28;20274;-72
2023/03/01 03:25:12;;;;;;;23.58;15.25;;;-0.70;99.90;;;;;;5048403;28;20664;-72
2023/03/01 03:27:39;;;;;;;26.07;15.93;;;-0.60;99.90;;;;;;5049697;28;20289;-72
2023/03/01 03:30:08;;;;;;;21.23;14.18;;;-0.60;99.90;;;;;;5049829;28;20629;-72
2023/03/01 03:32:35;;;;;;;25.08;15.10;;;-0.70;99.90;;;;;;5049609;28;20212;-72
2023/03/01 03:35:02;;;;;;;22.60;13.77;;;-0.60;99.90;;;;;;5048338;28;20652;-72
2023/03/01 03:40:15;;;;;;;21.75;14.10;;;-0.50;99.90;;;;;;5049608;28;20213;-72
2023/03/01 03:42:41;;;;;;;22.23;15.00;;;-0.50;99.90;;;;;;5049544;28;20180;-72
2023/03/01 03:45:07;;;;;;;32.70;14.53;;;-0.60;99.90;;;;;;5048051;28;20187;-72
2023/03/01 03:47:32;;;;;;;23.73;14.27;;;-0.60;99.90;;;;;;5049239;28;20831;-72
2023/03/01 03:49:58;;;;;;;25.90;14.73;;;-0.60;99.90;;;;;;5048091;28;20184;-72
2023/03/01 03:52:23;;;;;;;24.53;15.03;;;-0.60;99.90;;;;;;5048982;28;20809;-73
2023/03/01 03:54:49;;;;;;;21.37;14.20;;;-0.50;99.90;;;;;;5047892;28;20180;-73
2023/03/01 03:57:15;;;;;;;25.80;15.10;;;-0.60;99.90;;;;;;5030670;28;20203;-72
2023/03/01 03:59:40;;;;;;;20.80;14.30;;;-0.50;99.90;;;;;;5048952;28;20188;-72
2023/03/01 04:02:08;;;;;;;35.03;14.93;;;-0.60;99.90;;;;;;5048805;28;20672;-72
2023/03/01 04:04:34;;;;;;;23.23;14.10;;;-0.50;99.90;;;;;;5047692;28;20176;-72
2023/03/01 04:06:59;;;;;;;23.53;15.17;;;-0.50;99.90;;;;;;5048726;28;20581;-72
2023/03/01 04:09:25;;;;;;;25.70;15.60;;;-0.50;99.90;;;;;;5047603;28;20640;-72
2023/03/01 04:11:50;;;;;;;27.77;14.73;;;-0.50;99.90;;;;;;5048838;28;20188;-72
2023/03/01 04:14:16;;;;;;;23.60;15.30;;;-0.60;99.90;;;;;;5047508;28;20180;-72
2023/03/01 04:16:42;;;;;;;31.00;14.83;;;-0.50;99.90;;;;;;5048701;28;20262;-72
2023/03/01 04:19:09;;;;;;;25.97;14.40;;;-0.50;99.90;;;;;;5047139;28;20188;-71
2023/03/01 04:21:36;;;;;;;26.65;16.27;;;-0.50;99.90;;;;;;5048758;28;20537;-71
2023/03/01 04:24:03;;;;;;;26.65;14.95;;;-0.50;99.90;;;;;;5048926;28;20190;-71
2023/03/01 04:26:29;;;;;;;24.98;14.85;;;-0.50;99.90;;;;;;5048516;28;20188;-71
2023/03/01 04:28:54;;;;;;;21.10;14.37;;;-0.50;99.90;;;;;;5047322;28;20233;-72
2023/03/01 04:31:21;;;;;;;25.63;15.17;;;-0.50;99.90;;;;;;5048794;28;20282;-72
2023/03/01 04:33:47;;;;;;;23.13;14.00;;;-0.50;99.90;;;;;;5048567;28;20944;-72
2023/03/01 04:36:15;;;;;;;24.67;15.35;;;-0.50;99.90;;;;;;5048408;28;20668;-72
2023/03/01 04:38:41;;;;;;;28.30;16.70;;;-0.40;99.90;;;;;;5048363;28;20203;-72
2023/03/01 04:41:10;;;;;;;31.33;16.92;;;-0.50;99.90;;;;;;5048470;28;20215;-72
2023/03/01 04:43:37;;;;;;;25.20;15.43;;;-0.50;99.90;;;;;;5048450;28;20201;-72
2023/03/01 04:46:11;;;;;;;22.95;14.60;;;-0.40;99.90;;;;;;5048513;28;20186;-72
2023/03/01 04:48:38;;;;;;;23.92;15.07;;;-0.40;99.90;;;;;;5048341;28;20207;-72
2023/03/01 04:51:05;;;;;;;26.08;16.13;;;-0.40;99.90;;;;;;5048482;28;20254;-71
2023/03/01 04:53:32;;;;;;;23.63;15.50;;;-0.40;99.90;;;;;;5047220;28;20218;-72
2023/03/01 04:55:58;;;;;;;22.90;15.15;;;-0.30;99.90;;;;;;5030406;28;20218;-71
2023/03/01 04:58:25;;;;;;;23.93;15.10;;;-0.30;99.90;;;;;;5048269;28;20223;-72
2023/03/01 05:00:52;;;;;;;22.83;14.45;;;-0.30;99.90;;;;;;5046581;28;20424;-72
2023/03/01 05:03:18;;;;;;;26.35;15.52;;;-0.30;99.90;;;;;;5046648;28;20233;-72
2023/03/01 05:05:45;;;;;;;23.00;14.53;;;-0.30;99.90;;;;;;5048222;28;20188;-74
2023/03/01 05:08:17;;;;;;;23.80;15.35;;;-0.30;99.90;;;;;;5048095;28;20203;-72
2023/03/01 05:10:52;;;;;;;24.25;14.23;;;-0.30;99.90;;;;;;5047005;28;20272;-72
2023/03/01 05:13:22;;;;;;;27.42;15.90;;;-0.30;99.90;;;;;;5050736;28;20230;-72
2023/03/01 05:15:53;;;;;;;23.20;14.80;;;-0.30;99.90;;;;;;5050933;28;20206;-71
2023/03/01 05:18:18;;;;;;;26.85;15.40;;;-0.30;99.90;;;;;;5052169;28;20302;-71
2023/03/01 05:20:44;;;;;;;22.47;14.90;;;-0.40;99.90;;;;;;5051966;28;20266;-72
2023/03/01 05:23:10;;;;;;;22.80;15.30;;;-0.30;99.90;;;;;;5050768;28;20188;-71
2023/03/01 05:25:39;;;;;;;30.60;16.40;;;-0.40;99.90;;;;;;5051988;28;20183;-71
2023/03/01 05:28:07;;;;;;;22.73;13.95;;;-0.30;99.90;;;;;;5051332;28;20199;-72
2023/03/01 05:30:33;;;;;;;26.38;15.23;;;-0.30;99.90;;;;;;5049807;28;20246;-72
2023/03/01 05:33:00;;;;;;;27.17;15.57;;;-0.30;99.90;;;;;;5033373;28;20874;-72
2023/03/01 05:35:26;;;;;;;24.95;15.65;;;-0.30;99.90;;;;;;5051113;28;20199;-72
2023/03/01 05:37:52;;;;;;;30.97;15.67;;;-0.30;99.90;;;;;;5051312;28;20249;-72
2023/03/01 05:40:21;;;;;;;29.63;17.37;;;-0.30;99.90;;;;;;5051348;28;20415;-72
2023/03/01 05:42:53;;;;;;;32.10;16.50;;;-0.40;99.90;;;;;;5051073;28;20651;-72
2023/03/01 05:45:20;;;;;;;31.25;16.23;;;-0.40;99.90;;;;;;5050995;28;20238;-72
2023/03/01 05:47:47;;;;;;;26.85;15.68;;;-0.40;99.90;;;;;;5049824;28;20207;-72
2023/03/01 05:50:18;;;;;;;27.45;14.95;;;-0.40;99.90;;;;;;5050669;28;20756;-72
2023/03/01 05:52:46;;;;;;;24.30;16.00;;;-0.40;99.90;;;;;;5049123;28;20308;-71
2023/03/01 05:55:11;;;;;;;23.40;15.23;;;-0.40;99.90;;;;;;5050276;28;20180;-71
2023/03/01 05:57:37;;;;;;;27.87;17.67;;;-0.30;99.90;;;;;;5049988;28;20191;-71
2023/03/01 06:00:03;;;;;;;22.53;15.00;;;-0.30;99.90;;;;;;5050159;28;20234;-71
2023/03/01 06:02:29;;;;;;;24.97;16.10;;;-0.30;99.90;;;;;;5050208;28;20552;-71
2023/03/01 06:04:55;;;;;;;28.50;16.70;;;-0.30;99.90;;;;;;5048660;28;20434;-71
2023/03/01 06:07:21;;;;;;;29.33;16.40;;;-0.30;99.90;;;;;;5050036;28;20438;-71
2023/03/01 06:09:46;;;;;;;24.10;15.63;;;-0.30;99.90;;;;;;5050035;28;20655;-71
2023/03/01 06:12:12;;;;;;;27.90;16.20;;;-0.30;99.90;;;;;;5048908;28;20726;-71
2023/03/01 06:14:37;;;;;;;30.00;16.90;;;-0.40;99.90;;;;;;5048727;28;20263;-71
2023/03/01 06:17:03;;;;;;;29.57;15.87;;;-0.40;99.90;;;;;;5049972;28;20200;-71
2023/03/01 06:19:29;;;;;;;25.30;15.90;;;-0.50;99.90;;;;;;5049950;28;20176;-71
2023/03/01 06:21:54;;;;;;;24.40;16.57;;;-0.50;99.90;;;;;;5048475;28;20187;-71
2023/03/01 06:24:20;;;;;;;35.30;19.30;;;-0.60;99.90;;;;;;5049758;28;20632;-71
2023/03/01 06:26:45;;;;;;;26.93;16.53;;;-0.60;99.90;;;;;;5050236;28;20696;-71
2023/03/01 06:29:11;;;;;;;29.00;16.90;;;-0.60;99.90;;;;;;5049111;28;20185;-71
2023/03/01 06:31:36;;;;;;;30.07;17.97;;;-0.60;99.90;;;;;;5048860;28;20180;-71
2023/03/01 06:34:02;;;;;;;34.80;19.53;;;-0.60;99.90;;;;;;5048700;28;20227;-71
2023/03/01 06:36:28;;;;;;;33.57;18.63;;;-0.60;99.90;;;;;;5050192;28;20269;-71
2023/03/01 06:38:53;;;;;;;32.67;18.50;;;-0.70;99.90;;;;;;5050355;28;20266;-72
2023/03/01 06:41:19;;;;;;;34.57;18.23;;;-0.60;99.90;;;;;;5048793;28;20184;-71
2023/03/01 06:43:45;;;;;;;26.73;16.73;;;-0.60;99.90;;;;;;5050097;28;20223;-71
2023/03/01 06:46:10;;;;;;;26.63;16.87;;;-0.50;99.90;;;;;;5049337;28;20195;-71
2023/03/01 06:48:36;;;;;;;29.10;17.83;;;-0.50;99.90;;;;;;5049246;28;20975;-71
2023/03/01 06:51:01;;;;;;;29.10;17.50;;;-0.50;99.90;;;;;;5050157;28;20195;-72
2023/03/01 06:53:28;;;;;;;27.13;16.17;;;-0.40;99.90;;;;;;5048282;28;20203;-72
2023/03/01 06:55:55;;;;;;;31.23;16.52;;;-0.20;99.90;;;;;;5053039;28;20269;-71
2023/03/01 06:58:21;;;;;;;33.58;17.52;;;0.10;99.90;;;;;;5051092;28;20208;-72
2023/03/01 07:00:46;;;;;;;34.20;20.67;;;0.40;99.90;;;;;;5034953;28;20187;-72
2023/03/01 07:03:12;;;;;;;34.83;21.37;;;0.60;99.90;;;;;;5050670;28;20188;-72
2023/03/01 07:05:37;;;;;;;35.10;19.47;;;0.80;99.90;;;;;;5050517;28;20207;-72
2023/03/01 07:08:03;;;;;;;34.23;21.77;;;0.90;99.90;;;;;;5052284;28;20212;-72
2023/03/01 07:10:29;;;;;;;29.37;17.83;;;1.10;99.90;;;;;;5051762;28;20188;-72
2023/03/01 07:12:56;;;;;;;33.40;18.80;;;1.20;99.90;;;;;;5052556;28;20264;-72
2023/03/01 07:15:22;;;;;;;31.60;18.90;;;1.40;99.90;;;;;;5034412;28;20184;-72
2023/03/01 07:17:49;;;;;;;32.77;18.80;;;1.70;99.90;;;;;;5050479;28;20218;-73
2023/03/01 07:20:15;;;;;;;37.45;19.85;;;2.10;99.90;;;;;;5052110;28;20196;-72
2023/03/01 07:22:44;;;;;;;33.53;19.00;;;2.50;99.90;;;;;;5051245;28;20188;-72
2023/03/01 07:25:11;;;;;;;38.58;20.88;;;2.80;99.90;;;;;;5047808;28;20446;-72
2023/03/01 07:27:36;;;;;;;34.47;19.55;;;3.20;99.90;;;;;;5047582;28;20732;-72
2023/03/01 07:30:03;;;;;;;29.87;18.43;;;3.40;99.90;;;;;;5049008;28;20186;-72
2023/03/01 07:32:29;;;;;;;29.57;20.60;;;3.60;99.90;;;;;;5047181;28;20464;-72
2023/03/01 07:34:54;;;;;;;29.00;18.73;;;3.80;99.60;;;;;;5046306;28;20433;-71
2023/03/01 07:37:20;;;;;;;31.10;19.37;;;3.80;99.30;;;;;;5046589;28;20235;-71
2023/03/01 07:39:45;;;;;;;33.23;20.30;;;3.90;98.20;;;;;;5030389;28;20272;-71
2023/03/01 07:42:11;;;;;;;38.10;22.33;;;4.10;98.20;;;;;;5030274;28;20969;-71
2023/03/01 07:44:36;;;;;;;30.70;19.20;;;4.10;97.50;;;;;;5046412;28;20193;-71
2023/03/01 07:47:04;;;;;;;29.37;20.07;;;3.90;97.10;;;;;;5048080;28;20207;-71
2023/03/01 07:49:29;;;;;;;25.40;17.65;;;3.50;97.90;;;;;;5047851;28;20182;-71
2023/03/01 07:51:55;;;;;;;35.33;19.60;;;3.30;99.20;;;;;;5047948;28;20192;-71
2023/03/01 07:54:21;;;;;;;30.73;18.50;;;2.90;99.90;;;;;;5046149;28;20266;-71
2023/03/01 07:56:47;;;;;;;27.90;18.40;;;2.70;99.90;;;;;;5046420;28;20205;-71
2023/03/01 07:59:13;;;;;;;31.67;18.27;;;2.70;99.90;;;;;;5047908;28;20423;-71
2023/03/01 08:01:38;;;;;;;43.17;23.47;;;2.90;99.90;;;;;;5029862;28;20602;-71
2023/03/01 08:04:06;;;;;;;31.87;18.13;;;3.00;99.90;;;;;;5047901;28;20276;-71
2023/03/01 08:06:34;;;;;;;40.00;22.60;;;3.10;99.90;;;;;;5046273;28;20976;-71
2023/03/01 08:09:00;;;;;;;39.58;25.88;;;3.30;99.90;;;;;;5047968;28;20189;-71
2023/03/01 08:11:27;;;;;;;40.40;22.77;;;3.20;99.90;;;;;;5046508;28;20975;-71
2023/03/01 08:13:53;;;;;;;35.40;20.88;;;3.20;99.90;;;;;;5048102;28;20262;-71
2023/03/01 08:16:19;;;;;;;35.17;21.40;;;3.60;99.90;;;;;;5048250;28;20755;-70
2023/03/01 08:18:45;;;;;;;34.57;21.07;;;3.50;99.90;;;;;;5048142;28;20217;-71
2023/03/01 08:21:13;;;;;;;41.10;24.20;;;3.70;99.30;;;;;;5048148;28;20416;-71
2023/03/01 08:23:40;;;;;;;30.90;19.77;;;3.70;99.00;;;;;;5048149;28;20212;-71
2023/03/01 08:26:19;;;;;;;26.00;17.60;;;3.90;98.50;;;;;;5046400;28;20194;-70
2023/03/01 08:28:47;;;;;;;26.38;17.52;;;4.10;98.40;;;;;;5046281;28;20526;-70
2023/03/01 08:31:22;;;;;;;32.78;18.70;;;4.10;97.40;;;;;;5046403;28;20958;-70
2023/03/01 08:33:51;;;;;;;28.77;18.92;;;4.30;97.90;;;;;;5045754;28;20303;-70
2023/03/01 08:36:17;;;;;;;29.63;19.13;;;4.20;97.00;;;;;;5047219;28;20517;-70
2023/03/01 08:38:43;;;;;;;29.02;18.35;;;4.10;96.80;;;;;;5047203;28;20578;-71
2023/03/01 08:41:09;;;;;;;30.07;19.17;;;4.00;97.20;;;;;;5047087;28;20177;-70
2023/03/01 08:43:35;;;;;;;28.80;17.70;;;3.90;97.50;;;;;;5045741;28;20425;-71
2023/03/01 08:46:00;;;;;;;27.23;18.13;;;4.20;97.40;;;;;;5047450;28;20626;-71
2023/03/01 08:48:28;;;;;;;31.43;19.40;;;4.40;97.00;;;;;;5050004;28;20217;-71
2023/03/01 08:50:53;;;;;;;28.48;18.33;;;4.60;97.50;;;;;;5051308;28;20183;-71
2023/03/01 08:53:19;;;;;;;30.13;18.37;;;5.00;96.40;;;;;;5051046;28;20274;-71
2023/03/01 08:55:45;;;;;;;27.13;17.50;;;5.30;95.10;;;;;;5051181;28;20183;-71
2023/03/01 08:58:10;;;;;;;28.83;19.07;;;5.80;94.20;;;;;;5050765;28;20201;-71
2023/03/01 09:00:36;;;;;;;30.80;18.60;;;6.30;92.70;;;;;;5049673;28;20255;-72
2023/03/01 09:03:02;;;;;;;29.67;17.73;;;6.80;91.50;;;;;;5050991;28;20655;-72
2023/03/01 09:05:28;;;;;;;32.30;18.77;;;7.50;90.80;;;;;;5051316;28;20184;-71
2023/03/01 09:07:53;;;;;;;24.60;17.03;;;7.90;86.60;;;;;;5050794;28;20442;-72
2023/03/01 09:10:19;;;;;;;25.60;18.20;;;8.50;86.90;;;;;;5051061;28;20198;-71
2023/03/01 09:12:44;;;;;;;28.43;18.50;;;8.80;81.20;;;;;;5050878;28;20664;-72
2023/03/01 09:15:10;;;;;;;28.90;17.77;;;9.00;79.20;;;;;;5050863;28;20188;-72
2023/03/01 09:17:36;;;;;;;25.40;18.43;;;9.30;79.80;;;;;;5050663;28;20199;-72
2023/03/01 09:20:05;;;;;;;27.00;17.40;;;9.40;76.10;;;;;;5050858;28;20188;-72
2023/03/01 09:22:32;;;;;;;31.53;19.00;;;9.30;77.80;;;;;;5050618;28;20428;-72
2023/03/01 09:24:59;;;;;;;25.70;17.83;;;9.90;74.80;;;;;;5050571;28;21032;-72
2023/03/01 09:27:24;;;;;;;26.83;17.40;;;10.00;73.10;;;;;;5016069;28;20596;-72
2023/03/01 09:29:50;;;;;;;34.47;20.50;;;10.60;71.80;;;;;;5050683;28;21001;-72
2023/03/01 09:32:16;;;;;;;27.00;18.30;;;10.70;69.80;;;;;;5050512;28;20418;-72
2023/03/01 09:37:26;;;;;;;24.97;17.70;;;11.00;66.80;;;;;;5050394;28;20303;-73
2023/03/01 09:39:52;;;;;;;27.17;19.70;;;11.50;64.30;;;;;;5050499;28;20505;-72
2023/03/01 09:42:17;;;;;;;30.03;19.10;;;11.70;61.90;;;;;;5050154;28;20529;-72
2023/03/01 09:44:52;;;;;;;27.43;17.93;;;12.20;63.10;;;;;;5048698;28;20183;-73
2023/03/01 09:47:20;;;;;;;28.10;18.77;;;12.00;59.30;;;;;;5050054;28;20203;-72
2023/03/01 09:50:00;;;;;;;25.50;18.17;;;12.60;61.30;;;;;;5048543;28;20424;-72
2023/03/01 09:52:25;;;;;;;47.63;27.03;;;12.90;59.00;;;;;;5050186;28;20482;-72
2023/03/01 09:54:55;;;;;;;26.57;19.30;;;12.50;58.00;;;;;;5048493;28;20769;-73
2023/03/01 09:57:24;;;;;;;25.27;18.13;;;13.10;58.00;;;;;;5048047;28;20233;-72
2023/03/01 10:00:06;;;;;;;27.87;17.97;;;12.90;55.40;;;;;;5049567;28;21212;-73
2023/03/01 10:02:41;;;;;;;23.90;17.47;;;13.70;56.90;;;;;;5048291;28;21250;-73
2023/03/01 10:05:12;;;;;;;33.67;21.57;;;13.50;52.40;;;;;;5050080;28;20481;-72
2023/03/01 10:07:56;;;;;;;26.80;18.03;;;12.80;53.90;;;;;;5047822;28;21098;-72
2023/03/01 10:10:33;;;;;;;23.67;17.90;;;12.90;53.00;;;;;;5049753;28;20412;-72
2023/03/01 10:13:04;;;;;;;23.87;18.03;;;13.40;55.10;;;;;;5049671;28;20558;-72
2023/03/01 10:15:55;;;;;;;24.53;17.33;;;13.60;51.40;;;;;;5048136;28;20965;-73
2023/03/01 10:18:27;;;;;;;22.53;16.83;;;13.40;52.20;;;;;;5047950;28;20444;-72
2023/03/01 10:21:02;;;;;;;20.77;16.00;;;13.40;52.20;;;;;;5049764;28;20414;-73
2023/03/01 10:23:30;;;;;;;22.63;17.00;;;13.90;51.80;;;;;;5049381;28;21005;-72
2023/03/01 10:26:07;;;;;;;22.93;17.13;;;13.80;50.00;;;;;;5049157;28;20430;-71
2023/03/01 10:28:39;;;;;;;25.90;17.17;;;14.30;50.70;;;;;;5049805;28;20817;-73
2023/03/01 10:31:11;;;;;;;26.10;16.60;;;13.80;49.40;;;;;;5049440;28;20424;-72
2023/03/01 10:33:39;;;;;;;24.80;17.37;;;13.90;49.90;;;;;;5049524;28;20464;-72
2023/03/01 10:36:05;;;;;;;25.93;17.23;;;14.20;49.30;;;;;;5049142;28;20467;-72
2023/03/01 10:38:53;;;;;;;24.20;16.73;;;13.70;48.80;;;;;;5048075;28;20817;-72
2023/03/01 10:41:23;;;;;;;21.97;16.67;;;13.30;49.10;;;;;;5049144;28;20413;-72
2023/03/01 10:43:48;;;;;;;21.67;17.27;;;13.90;49.10;;;;;;5049183;28;20856;-72
2023/03/01 10:46:30;;;;;;;22.87;16.57;;;14.20;49.20;;;;;;5047594;28;20437;-73
2023/03/01 10:49:15;;;;;;;21.70;16.30;;;14.10;48.70;;;;;;5049411;28;20176;-71
2023/03/01 10:51:42;;;;;;;21.70;16.40;;;13.90;48.70;;;;;;5048903;28;20417;-71
2023/03/01 10:54:31;;;;;;;29.63;17.87;;;14.10;48.80;;;;;;5049087;28;20461;-73
2023/03/01 10:57:03;;;;;;;22.90;16.87;;;13.90;48.50;;;;;;5049242;28;21150;-73
2023/03/01 10:59:31;;;;;;;23.67;15.60;;;14.10;48.10;;;;;;5049009;28;20442;-72
2023/03/01 11:02:25;;;;;;;23.47;15.80;;;14.10;46.90;;;;;;5047484;28;20421;-72
2023/03/01 11:05:12;;;;;;;24.00;17.70;;;14.40;47.20;;;;;;5048865;28;20420;-72
2023/03/01 11:07:50;;;;;;;24.03;16.60;;;14.20;48.30;;;;;;5049324;28;20925;-72
2023/03/01 11:10:42;;;;;;;23.30;17.53;;;14.10;48.20;;;;;;5049702;28;20818;-72
2023/03/01 11:13:16;;;;;;;25.40;18.00;;;13.70;47.50;;;;;;5048394;28;20487;-72
2023/03/01 11:15:42;;;;;;;25.80;17.70;;;13.50;48.40;;;;;;5049264;28;20508;-72
2023/03/01 11:18:22;;;;;;;22.40;16.87;;;13.00;47.90;;;;;;5049161;28;20437;-72
2023/03/01 11:20:51;;;;;;;22.17;16.47;;;12.90;50.40;;;;;;5047573;28;20467;-72
2023/03/01 11:23:17;;;;;;;22.40;16.13;;;13.20;49.30;;;;;;5031375;28;20475;-72
2023/03/01 11:25:47;;;;;;;24.47;17.30;;;14.10;49.00;;;;;;5047610;28;20431;-72
2023/03/01 11:28:16;;;;;;;23.57;17.73;;;13.80;47.20;;;;;;5048713;28;21095;-72
2023/03/01 11:31:13;;;;;;;19.90;14.97;;;13.80;48.00;;;;;;5047193;28;20433;-71
2023/03/01 11:33:55;;;;;;;22.20;14.67;;;13.00;47.80;;;;;;5046188;28;20479;-72
2023/03/01 11:36:41;;;;;;;19.47;15.00;;;13.20;48.50;;;;;;5048287;28;20441;-72
2023/03/01 11:39:28;;;;;;;19.40;15.00;;;13.00;49.30;;;;;;5046964;28;20529;-72
2023/03/01 11:42:06;;;;;;;23.30;15.40;;;13.20;48.00;;;;;;5048197;28;20424;-72
2023/03/01 11:44:36;;;;;;;19.30;14.43;;;13.00;48.30;;;;;;5046635;28;20429;-72
2023/03/01 11:47:20;;;;;;;25.13;15.47;;;13.30;48.60;;;;;;5048243;28;20812;-72
2023/03/01 11:50:10;;;;;;;20.63;14.23;;;13.10;49.00;;;;;;5047946;28;20426;-72
2023/03/01 11:53:21;;;;;;;20.47;14.90;;;13.30;48.60;;;;;;5048320;28;20483;-71
2023/03/01 11:56:02;;;;;;;22.53;14.67;;;13.60;48.50;;;;;;5048426;28;20850;-71
2023/03/01 11:58:41;;;;;;;21.40;14.37;;;13.50;47.20;;;;;;5048380;28;20447;-72
2023/03/01 12:01:12;;;;;;;19.97;14.87;;;13.40;48.30;;;;;;5047015;28;20489;-72
2023/03/01 12:03:59;;;;;;;19.97;15.23;;;12.80;47.50;;;;;;5049613;28;20426;-72
2023/03/01 12:06:28;;;;;;;21.00;14.97;;;13.10;48.10;;;;;;5048863;28;20839;-73
2023/03/01 12:09:33;;;;;;;21.13;14.67;;;12.90;48.20;;;;;;5047415;28;20448;-73
2023/03/01 12:12:27;;;;;;;17.97;14.00;;;13.00;48.70;;;;;;5047556;28;20857;-72
2023/03/01 12:15:11;;;;;;;19.10;13.67;;;13.10;47.90;;;;;;5048375;28;20436;-71
2023/03/01 12:18:05;;;;;;;21.23;14.97;;;13.40;48.90;;;;;;5048315;28;20804;-71
2023/03/01 12:20:57;;;;;;;20.23;14.70;;;13.40;48.40;;;;;;5046464;28;20516;-72
2023/03/01 12:23:42;;;;;;;23.30;16.67;;;13.20;48.90;;;;;;5048033;28;20917;-71
2023/03/01 12:26:33;;;;;;;26.20;18.17;;;12.80;50.20;;;;;;5046504;28;20409;-72
2023/03/01 12:29:14;;;;;;;18.13;14.00;;;12.70;50.00;;;;;;5048018;28;20428;-71
2023/03/01 12:32:06;;;;;;;22.80;15.57;;;12.60;50.00;;;;;;5048165;28;20905;-72
2023/03/01 12:34:43;;;;;;;19.30;13.27;;;12.70;49.80;;;;;;5046416;28;20479;-72
2023/03/01 12:37:21;;;;;;;19.00;14.73;;;12.70;49.70;;;;;;5047759;28;20914;-72
2023/03/01 12:40:03;;;;;;;20.27;14.57;;;12.60;51.10;;;;;;5047850;28;20414;-71
2023/03/01 12:42:51;;;;;;;20.00;14.50;;;12.50;50.80;;;;;;5047526;28;20413;-72
2023/03/01 12:45:45;;;;;;;24.20;15.90;;;12.50;50.40;;;;;;5047414;28;20416;-72
2023/03/01 12:48:28;;;;;;;19.27;14.20;;;12.40;49.80;;;;;;5047422;28;20435;-72